Time;durP1;ratioP1;P1;durP2;ratioP2;P2;SDS_P1;SDS_P2;PMS_P1;PMS_P2;Temp;Humidity;BMP_temperature;BMP_pressure;BME280_temperature;BME280_humidity;BME280_pressure;Samples;Min_cycle;Max_cycle;Signal;HPM_P1;HPM_P2
2023/12/28 00:00:57;;;;;;;;;;;;;;;12.78;81.79;99922.50;7293503;19;20445;-69
2023/12/28 00:03:24;;;;;;;;;;;;;;;12.78;82.52;99910.13;7293524;19;20498;-69
2023/12/28 00:05:51;;;;;;;;;;;;;;;12.82;82.17;99929.03;7294112;19;20331;-68
2023/12/28 00:08:18;;;;;;;;;;;;;;;12.83;81.89;99920.94;7290437;19;19935;-67
2023/12/28 00:10:45;;;;;;;;;;;;;;;12.91;82.43;99932.34;7286650;19;20490;-69
2023/12/28 00:13:12;;;;;;;;;;;;;;;12.93;82.29;99946.19;7292628;19;19921;-68
2023/12/28 00:15:39;;;;;;;;;;;;;;;12.99;82.76;99925.13;7288920;19;20896;-68
2023/12/28 00:18:05;;;;;;;;;;;;;;;12.99;81.84;99942.81;7297415;19;20665;-69
2023/12/28 00:20:32;;;;;;;;;;;;;;;13.03;83.19;99936.13;7296503;19;20342;-68
2023/12/28 00:23:00;;;;;;;;;;;;;;;13.02;82.02;99934.50;7293688;19;19951;-70
2023/12/28 00:25:27;;;;;;;;;;;;;;;13.07;82.47;99940.03;7313691;19;19923;-67
2023/12/28 00:27:54;;;;;;;;;;;;;;;13.07;84.02;99954.03;7288114;19;21403;-69
2023/12/28 00:30:21;;;;;;;;;;;;;;;13.07;87.04;99946.13;7292961;19;19919;-69
2023/12/28 00:32:48;;;;;;;;;;;;;;;12.99;88.07;99929.59;7286502;19;21209;-68
2023/12/28 00:35:15;;;;;;;;;;;;;;;12.89;89.19;99932.56;7295994;19;20750;-68
2023/12/28 00:37:42;;;;;;;;;;;;;;;12.83;90.21;99936.78;7299022;19;20595;-68
2023/12/28 00:40:09;;;;;;;;;;;;;;;12.81;90.80;99930.03;7297305;19;20416;-68
2023/12/28 00:42:36;;;;;;;;;;;;;;;12.77;91.29;99923.50;7296267;19;20144;-69
2023/12/28 00:45:03;;;;;;;;;;;;;;;12.74;91.91;99908.88;7295781;19;20338;-69
2023/12/28 00:47:31;;;;;;;;;;;;;;;12.78;91.67;99939.16;7294527;19;19947;-68
2023/12/28 00:49:58;;;;;;;;;;;;;;;12.73;90.93;99936.28;7295207;19;19923;-70
2023/12/28 00:52:25;;;;;;;;;;;;;;;12.76;90.56;99948.28;7292848;19;20279;-68
2023/12/28 00:54:56;;;;;;;;;;;;;;;12.77;90.34;99936.72;7305170;19;19990;-68
2023/12/28 00:57:24;;;;;;;;;;;;;;;12.79;90.71;99946.09;7290987;19;20731;-70
2023/12/28 00:59:51;;;;;;;;;;;;;;;12.81;91.33;99936.16;7298466;19;20387;-68
2023/12/28 01:02:18;;;;;;;;;;;;;;;12.83;90.07;99957.91;7295813;19;20372;-68
2023/12/28 01:04:44;;;;;;;;;;;;;;;12.84;90.38;99948.16;7285843;19;20517;-69
2023/12/28 01:07:11;;;;;;;;;;;;;;;12.85;90.44;99958.50;7287671;19;20366;-67
2023/12/28 01:09:38;;;;;;;;;;;;;;;12.87;89.70;99960.97;7288104;19;20010;-67
2023/12/28 01:12:06;;;;;;;;;;;;;;;12.90;88.57;99946.59;7288245;19;19923;-69
2023/12/28 01:14:32;;;;;;;;;;;;;;;12.91;88.27;99956.94;7304077;19;20273;-68
2023/12/28 01:16:59;;;;;;;;;;;;;;;12.95;88.87;99958.22;7306558;19;19921;-67
2023/12/28 01:19:26;;;;;;;;;;;;;;;12.95;88.29;99952.94;7290782;19;20751;-67
2023/12/28 01:21:53;;;;;;;;;;;;;;;12.99;88.48;99950.72;7299482;19;20155;-67
2023/12/28 01:24:20;;;;;;;;;;;;;;;12.98;87.82;99944.63;7303749;19;19927;-70
2023/12/28 01:26:47;;;;;;;;;;;;;;;13.00;87.60;99950.53;7310273;19;20936;-68
2023/12/28 01:29:14;;;;;;;;;;;;;;;12.98;87.05;99938.53;7286103;19;20162;-68
2023/12/28 01:31:40;;;;;;;;;;;;;;;12.98;87.79;99934.06;7306124;19;19939;-66
2023/12/28 01:34:09;;;;;;;;;;;;;;;12.98;86.26;99939.34;7300178;19;19927;-67
2023/12/28 01:36:36;;;;;;;;;;;;;;;12.97;86.07;99953.53;7303547;19;19926;-67
2023/12/28 01:39:03;;;;;;;;;;;;;;;12.94;85.74;99953.94;7308388;19;19922;-67
2023/12/28 01:41:38;;;;;;;;;;;;;;;12.96;86.73;99940.53;7305422;19;19911;-68
2023/12/28 01:44:04;;;;;;;;;;;;;;;12.99;86.46;99942.81;7298947;19;19962;-68
2023/12/28 01:46:32;;;;;;;;;;;;;;;13.00;87.07;99953.19;7294641;19;19918;-67
2023/12/28 01:48:59;;;;;;;;;;;;;;;13.03;87.28;99951.97;7298051;19;20244;-69
2023/12/28 01:51:26;;;;;;;;;;;;;;;13.05;88.96;99944.69;7289967;19;19947;-67
2023/12/28 01:53:53;;;;;;;;;;;;;;;13.04;89.83;99949.16;7305482;19;20478;-69
2023/12/28 01:56:21;;;;;;;;;;;;;;;13.01;89.51;99957.44;7305144;19;19915;-69
2023/12/28 01:58:49;;;;;;;;;;;;;;;13.02;89.98;99960.91;7305141;19;19919;-66
2023/12/28 02:01:16;;;;;;;;;;;;;;;13.00;90.48;99958.47;7299552;19;19925;-69
2023/12/28 02:03:44;;;;;;;;;;;;;;;12.98;91.73;99957.81;7292535;19;19919;-69
2023/12/28 02:06:15;;;;;;;;;;;;;;;12.95;91.99;99960.84;7288831;19;19933;-70
2023/12/28 02:08:42;;;;;;;;;;;;;;;12.94;92.46;99967.13;7291754;19;20405;-68
2023/12/28 02:11:09;;;;;;;;;;;;;;;12.94;92.49;99967.13;7282928;19;19917;-68
2023/12/28 02:13:39;;;;;;;;;;;;;;;12.89;92.54;99963.44;7292609;19;19937;-68
2023/12/28 02:16:11;;;;;;;;;;;;;;;12.91;92.91;99972.78;7298181;19;19933;-68
2023/12/28 02:18:47;;;;;;;;;;;;;;;12.89;92.72;99980.09;7293272;19;20379;-67
2023/12/28 02:21:15;;;;;;;;;;;;;;;12.90;92.96;99979.06;7292811;19;19930;-68
2023/12/28 02:23:51;;;;;;;;;;;;;;;12.90;93.31;99994.91;7290207;19;19994;-70
2023/12/28 02:26:18;;;;;;;;;;;;;;;12.88;92.18;99998.75;7294185;19;20324;-67
2023/12/28 02:28:46;;;;;;;;;;;;;;;12.92;93.31;100014.03;7288137;19;19967;-68
2023/12/28 02:31:21;;;;;;;;;;;;;;;12.90;92.71;100000.19;7286150;19;19927;-68
2023/12/28 02:34:01;;;;;;;;;;;;;;;12.90;91.46;99994.13;7295296;19;19947;-67
2023/12/28 02:36:28;;;;;;;;;;;;;;;12.90;91.34;100002.03;7306295;19;20299;-68
2023/12/28 02:38:56;;;;;;;;;;;;;;;12.83;90.83;100005.41;7310248;19;19974;-67
2023/12/28 02:41:24;;;;;;;;;;;;;;;12.82;90.84;100009.06;7290398;19;19929;-68
2023/12/28 02:43:51;;;;;;;;;;;;;;;12.80;91.44;100008.41;7298602;19;19938;-68
2023/12/28 02:46:17;;;;;;;;;;;;;;;12.79;91.74;100000.72;7299104;19;19925;-66
2023/12/28 02:48:44;;;;;;;;;;;;;;;12.74;92.30;100006.56;7289510;19;20420;-69
2023/12/28 02:51:11;;;;;;;;;;;;;;;12.74;92.57;100008.38;7294609;19;20666;-67
2023/12/28 02:53:43;;;;;;;;;;;;;;;12.72;92.89;100007.72;7290016;19;19963;-68
2023/12/28 02:56:10;;;;;;;;;;;;;;;12.67;93.04;100003.00;7287146;19;20326;-67
2023/12/28 02:58:36;;;;;;;;;;;;;;;12.69;93.56;100002.84;7311990;19;22361;-67
2023/12/28 03:01:03;;;;;;;;;;;;;;;12.69;93.81;99997.56;7310844;19;20021;-67
2023/12/28 03:03:30;;;;;;;;;;;;;;;12.67;93.70;100003.00;7281576;19;19915;-67
2023/12/28 03:05:58;;;;;;;;;;;;;;;12.69;93.39;100014.22;7289718;19;21236;-68
2023/12/28 03:08:25;;;;;;;;;;;;;;;12.75;93.37;100010.81;7302913;19;21544;-68
2023/12/28 03:10:52;;;;;;;;;;;;;;;12.76;92.44;100009.81;7294150;19;19923;-68
2023/12/28 03:13:19;;;;;;;;;;;;;;;12.79;91.66;99998.06;7281987;19;20717;-69
2023/12/28 03:15:46;;;;;;;;;;;;;;;12.79;91.21;100014.72;7278819;19;19929;-67
2023/12/28 03:18:13;;;;;;;;;;;;;;;12.84;90.63;100008.88;7292728;19;19931;-68
2023/12/28 03:20:40;;;;;;;;;;;;;;;12.86;91.17;100010.31;7292032;19;20641;-69
2023/12/28 03:23:07;;;;;;;;;;;;;;;12.82;89.73;100008.25;7293189;19;19915;-68
2023/12/28 03:25:35;;;;;;;;;;;;;;;12.82;89.78;100014.34;7290287;19;20700;-67
2023/12/28 03:28:02;;;;;;;;;;;;;;;12.86;90.15;99998.94;7294775;19;20220;-68
2023/12/28 03:30:29;;;;;;;;;;;;;;;12.88;89.15;100002.22;7292440;19;20396;-69
2023/12/28 03:32:56;;;;;;;;;;;;;;;12.89;88.97;100013.59;7292355;19;20462;-70
2023/12/28 03:35:23;;;;;;;;;;;;;;;12.92;88.11;100006.09;7286105;19;21796;-68
2023/12/28 03:37:50;;;;;;;;;;;;;;;12.89;88.25;100010.97;7301647;19;19947;-68
2023/12/28 03:40:17;;;;;;;;;;;;;;;12.88;88.09;100015.41;7308464;19;19915;-67
2023/12/28 03:42:46;;;;;;;;;;;;;;;12.84;86.55;100008.88;7301454;19;19929;-68
2023/12/28 03:45:12;;;;;;;;;;;;;;;12.81;86.54;100022.44;7291857;19;20229;-67
2023/12/28 03:47:43;;;;;;;;;;;;;;;12.84;87.22;100006.25;7293495;19;20366;-68
2023/12/28 03:50:10;;;;;;;;;;;;;;;12.86;86.69;100012.97;7296903;19;20348;-67
2023/12/28 03:52:37;;;;;;;;;;;;;;;12.86;86.85;100012.97;7282455;19;19933;-69
2023/12/28 03:55:04;;;;;;;;;;;;;;;12.84;86.04;100007.06;7282973;19;19959;-67
2023/12/28 03:57:30;;;;;;;;;;;;;;;12.84;86.56;100009.69;7301329;19;19910;-67
2023/12/28 03:59:59;;;;;;;;;;;;;;;12.86;86.86;100005.03;7293384;19;19919;-67
2023/12/28 04:02:31;;;;;;;;;;;;;;;12.85;87.27;100010.50;7280984;19;21185;-67
2023/12/28 04:04:58;;;;;;;;;;;;;;;12.85;86.51;100013.13;7283315;19;20003;-67
2023/12/28 04:07:25;;;;;;;;;;;;;;;12.85;87.67;100006.03;7286787;19;19919;-69
2023/12/28 04:09:52;;;;;;;;;;;;;;;12.87;87.48;100016.41;7300906;19;19919;-68
2023/12/28 04:12:19;;;;;;;;;;;;;;;12.86;87.05;100012.97;7295891;19;20248;-68
2023/12/28 04:14:46;;;;;;;;;;;;;;;12.87;87.75;100029.63;7301394;19;19919;-68
2023/12/28 04:17:13;;;;;;;;;;;;;;;12.87;87.67;100037.53;7302875;19;19937;-68
2023/12/28 04:19:40;;;;;;;;;;;;;;;12.88;88.15;100033.06;7305744;19;19927;-68
2023/12/28 04:22:07;;;;;;;;;;;;;;;12.90;87.94;100039.00;7297803;19;19951;-67
2023/12/28 04:24:34;;;;;;;;;;;;;;;12.91;88.22;100035.34;7292130;19;19933;-69
2023/12/28 04:27:01;;;;;;;;;;;;;;;12.91;87.96;100048.53;7301228;19;22027;-67
2023/12/28 04:29:28;;;;;;;;;;;;;;;12.95;87.60;100049.81;7307191;19;19911;-68
2023/12/28 04:31:55;;;;;;;;;;;;;;;12.94;87.98;100041.06;7299975;19;19930;-68
2023/12/28 04:34:22;;;;;;;;;;;;;;;12.98;87.98;100049.44;7294464;19;20500;-69
2023/12/28 04:36:49;;;;;;;;;;;;;;;13.00;88.68;100035.06;7307266;19;20327;-67
2023/12/28 04:39:16;;;;;;;;;;;;;;;13.00;87.59;100039.50;7298499;19;19926;-68
2023/12/28 04:41:43;;;;;;;;;;;;;;;12.98;87.05;100044.16;7291182;19;20524;-68
2023/12/28 04:44:13;;;;;;;;;;;;;;;12.98;88.10;100054.72;7307366;19;21613;-68
2023/12/28 04:46:42;;;;;;;;;;;;;;;12.94;86.84;100059.56;7304523;19;19923;-68
2023/12/28 04:49:10;;;;;;;;;;;;;;;12.94;86.79;100051.63;7302977;19;19923;-67
2023/12/28 04:51:41;;;;;;;;;;;;;;;12.94;86.82;100038.44;7306839;19;20670;-68
2023/12/28 04:54:10;;;;;;;;;;;;;;;12.96;86.53;100033.78;7305956;19;19945;-68
2023/12/28 04:56:39;;;;;;;;;;;;;;;12.96;86.62;100025.03;7286872;19;19923;-68
2023/12/28 04:59:06;;;;;;;;;;;;;;;12.92;86.84;100029.06;7289863;19;20283;-67
2023/12/28 05:01:33;;;;;;;;;;;;;;;12.95;86.93;100044.53;7288448;19;19921;-69
2023/12/28 05:04:00;;;;;;;;;;;;;;;12.96;85.90;100054.91;7287724;19;19921;-69
2023/12/28 05:06:27;;;;;;;;;;;;;;;12.95;85.79;100055.09;7286766;19;20695;-68
2023/12/28 05:08:54;;;;;;;;;;;;;;;12.93;85.81;100052.63;7294907;19;20480;-69
2023/12/28 05:11:21;;;;;;;;;;;;;;;12.93;84.98;100049.19;7304745;19;21034;-67
2023/12/28 05:13:48;;;;;;;;;;;;;;;12.96;85.63;100056.72;7304976;19;19915;-68
2023/12/28 05:16:15;;;;;;;;;;;;;;;12.95;84.57;100055.94;7291136;19;19932;-68
2023/12/28 05:18:42;;;;;;;;;;;;;;;12.98;84.34;100062.63;7290387;19;19998;-68
2023/12/28 05:21:09;;;;;;;;;;;;;;;12.99;84.00;100066.91;7289545;19;19914;-69
2023/12/28 05:23:35;;;;;;;;;;;;;;;13.02;84.69;100059.44;7312491;19;21122;-69
2023/12/28 05:26:02;;;;;;;;;;;;;;;13.05;83.90;100052.97;7299088;19;19941;-67
2023/12/28 05:28:30;;;;;;;;;;;;;;;13.05;83.73;100069.63;7295493;19;19934;-70
2023/12/28 05:30:58;;;;;;;;;;;;;;;13.07;83.99;100064.16;7288112;19;20415;-67
2023/12/28 05:33:25;;;;;;;;;;;;;;;13.06;82.97;100068.59;7297310;19;19919;-69
2023/12/28 05:35:52;;;;;;;;;;;;;;;13.07;81.67;100072.06;7298005;19;19927;-68
2023/12/28 05:38:19;;;;;;;;;;;;;;;13.05;81.26;100067.00;7289442;19;19986;-70
2023/12/28 05:40:46;;;;;;;;;;;;;;;13.04;80.77;100073.28;7284081;19;20183;-69
2023/12/28 05:43:13;;;;;;;;;;;;;;;13.01;80.58;100081.56;7318031;19;19914;-68
2023/12/28 05:45:39;;;;;;;;;;;;;;;12.99;80.65;100059.81;7319542;19;20376;-68
2023/12/28 05:48:07;;;;;;;;;;;;;;;12.97;80.05;100085.59;7294278;19;19927;-68
2023/12/28 05:50:34;;;;;;;;;;;;;;;12.97;80.18;100092.69;7296958;19;19922;-68
2023/12/28 05:53:01;;;;;;;;;;;;;;;12.94;79.85;100091.25;7308436;19;19923;-67
2023/12/28 05:55:28;;;;;;;;;;;;;;;12.97;80.59;100097.97;7301635;19;20275;-68
2023/12/28 05:57:55;;;;;;;;;;;;;;;12.96;80.14;100114.81;7301220;19;19926;-67
2023/12/28 06:00:22;;;;;;;;;;;;;;;12.98;80.37;100099.59;7298568;19;19926;-67
2023/12/28 06:02:52;;;;;;;;;;;;;;;13.02;80.95;100122.00;7296486;19;20002;-68
2023/12/28 06:05:19;;;;;;;;;;;;;;;13.01;80.92;100129.09;7296219;19;20293;-68
2023/12/28 06:07:46;;;;;;;;;;;;;;;13.01;81.29;100118.53;7277222;19;19911;-67
2023/12/28 06:10:12;;;;;;;;;;;;;;;13.02;80.39;100111.44;7296914;19;21273;-68
2023/12/28 06:12:39;;;;;;;;;;;;;;;13.03;81.64;100121.81;7295005;19;20023;-69
2023/12/28 06:15:06;;;;;;;;;;;;;;;13.06;82.27;100125.91;7287261;19;20514;-70
2023/12/28 06:17:33;;;;;;;;;;;;;;;13.03;81.71;100128.91;7300841;19;19955;-67
2023/12/28 06:20:01;;;;;;;;;;;;;;;13.00;81.40;100116.09;7292822;19;21542;-68
2023/12/28 06:22:28;;;;;;;;;;;;;;;12.98;80.76;100116.28;7296232;19;19994;-70
2023/12/28 06:24:55;;;;;;;;;;;;;;;12.98;81.81;100121.56;7294856;19;20493;-67
2023/12/28 06:27:23;;;;;;;;;;;;;;;12.95;81.29;100105.28;7279727;19;19914;-69
2023/12/28 06:29:50;;;;;;;;;;;;;;;12.93;81.77;100120.47;7303516;19;20355;-68
2023/12/28 06:32:17;;;;;;;;;;;;;;;12.92;80.51;100121.47;7294485;19;20490;-69
2023/12/28 06:34:43;;;;;;;;;;;;;;;12.89;80.42;100135.88;7295665;19;20002;-69
2023/12/28 06:37:10;;;;;;;;;;;;;;;12.86;79.89;100125.66;7299955;19;20329;-68
2023/12/28 06:39:37;;;;;;;;;;;;;;;12.83;79.78;100121.59;7296329;19;20229;-71
2023/12/28 06:42:04;;;;;;;;;;;;;;;12.85;80.82;100145.97;7289658;19;20018;-68
2023/12/28 06:44:31;;;;;;;;;;;;;;;12.87;81.44;100143.16;7283281;19;19915;-68
2023/12/28 06:46:58;;;;;;;;;;;;;;;12.83;81.03;100158.56;7282276;19;19915;-69
2023/12/28 06:49:25;;;;;;;;;;;;;;;12.82;81.59;100153.44;7284661;19;20356;-68
2023/12/28 06:51:52;;;;;;;;;;;;;;;12.78;81.75;100150.38;7284163;19;19971;-68
2023/12/28 06:54:19;;;;;;;;;;;;;;;12.79;82.03;100152.00;7292573;19;19933;-68
2023/12/28 06:56:46;;;;;;;;;;;;;;;12.79;81.82;100151.19;7287693;19;19946;-68
2023/12/28 06:59:13;;;;;;;;;;;;;;;12.76;82.06;100156.81;7299069;19;19919;-69
2023/12/28 07:01:40;;;;;;;;;;;;;;;12.73;82.31;100160.66;7295126;19;19919;-68
2023/12/28 07:04:07;;;;;;;;;;;;;;;12.70;82.58;100163.63;7284907;19;19926;-68
2023/12/28 07:06:43;;;;;;;;;;;;;;;12.71;83.54;100170.56;7300963;19;20414;-68
2023/12/28 07:09:10;;;;;;;;;;;;;;;12.67;83.64;100173.75;7294883;19;20588;-69
2023/12/28 07:11:37;;;;;;;;;;;;;;;12.66;83.69;100169.47;7305661;19;19919;-67
2023/12/28 07:14:04;;;;;;;;;;;;;;;12.65;84.79;100171.28;7297084;19;20391;-68
2023/12/28 07:16:30;;;;;;;;;;;;;;;12.63;85.41;100162.75;7295982;19;19911;-67
2023/12/28 07:18:58;;;;;;;;;;;;;;;12.61;85.16;100167.38;7315228;19;20548;-68
2023/12/28 07:21:25;;;;;;;;;;;;;;;12.61;85.68;100158.66;7315907;19;19930;-69
2023/12/28 07:23:52;;;;;;;;;;;;;;;12.60;86.60;100159.63;7316370;19;19951;-68
2023/12/28 07:26:19;;;;;;;;;;;;;;;12.58;86.72;100164.28;7317667;19;19923;-68
2023/12/28 07:28:48;;;;;;;;;;;;;;;12.56;86.78;100158.38;7316005;19;19919;-68
2023/12/28 07:31:25;;;;;;;;;;;;;;;12.54;87.29;100144.56;7314949;19;19929;-69
2023/12/28 07:33:52;;;;;;;;;;;;;;;12.52;87.47;100155.28;7294178;19;19922;-68
2023/12/28 07:36:19;;;;;;;;;;;;;;;12.52;87.51;100155.28;7293833;19;20481;-67
2023/12/28 07:38:46;;;;;;;;;;;;;;;12.50;87.52;100162.56;7293109;19;19910;-69
2023/12/28 07:41:13;;;;;;;;;;;;;;;12.49;87.49;100157.47;7294999;19;20240;-69
2023/12/28 07:43:40;;;;;;;;;;;;;;;12.51;87.72;100166.84;7302186;19;19911;-68
2023/12/28 07:46:07;;;;;;;;;;;;;;;12.50;87.75;100173.09;7293502;19;20267;-68
2023/12/28 07:48:34;;;;;;;;;;;;;;;12.52;87.51;100171.13;7289488;19;20689;-69
2023/12/28 07:51:05;;;;;;;;;;;;;;;12.52;87.33;100180.84;7285348;19;19926;-68
2023/12/28 07:53:33;;;;;;;;;;;;;;;12.53;86.87;100185.13;7292725;19;20382;-70
2023/12/28 07:56:00;;;;;;;;;;;;;;;12.54;86.15;100184.97;7317546;19;19941;-68
2023/12/28 07:58:30;;;;;;;;;;;;;;;12.54;86.10;100178.88;7308623;19;19919;-67
2023/12/28 08:00:57;;;;;;;;;;;;;;;12.55;86.38;100189.22;7304022;19;19918;-68
2023/12/28 08:03:25;;;;;;;;;;;;;;;12.56;85.64;100184.75;7297518;19;22388;-68
2023/12/28 08:05:52;;;;;;;;;;;;;;;12.54;85.39;100182.31;7296149;19;20996;-70
2023/12/28 08:08:19;;;;;;;;;;;;;;;12.56;85.77;100187.41;7298684;19;20275;-69
2023/12/28 08:10:46;;;;;;;;;;;;;;;12.56;86.30;100190.84;7300225;19;20584;-67
2023/12/28 08:13:13;;;;;;;;;;;;;;;12.57;85.37;100184.59;7290265;19;20622;-68
2023/12/28 08:15:40;;;;;;;;;;;;;;;12.59;85.46;100179.13;7299334;19;19936;-68
2023/12/28 08:18:07;;;;;;;;;;;;;;;12.58;85.42;100198.59;7285494;19;19919;-67
2023/12/28 08:20:34;;;;;;;;;;;;;;;12.58;84.97;100188.06;7308597;19;20237;-68
2023/12/28 08:23:01;;;;;;;;;;;;;;;12.57;85.35;100191.69;7319190;19;21207;-69
2023/12/28 08:25:42;;;;;;;;;;;;;;;12.56;85.26;100182.94;7300179;19;21105;-69
2023/12/28 08:28:09;;;;;;;;;;;;;;;12.58;84.91;100202.06;7294135;19;19919;-68
2023/12/28 08:30:37;;;;;;;;;;;;;;;12.57;84.58;100191.69;7294900;19;20496;-70
2023/12/28 08:33:04;;;;;;;;;;;;;;;12.59;85.13;100203.72;7295838;19;19942;-68
2023/12/28 08:35:31;;;;;;;;;;;;;;;12.64;85.70;100211.91;7306636;19;19915;-67
2023/12/28 08:38:00;;;;;;;;;;;;;;;12.65;84.48;100196.84;7303073;19;19961;-68
2023/12/28 08:40:28;;;;;;;;;;;;;;;12.68;85.42;100199.16;7307496;19;19926;-69
2023/12/28 08:42:55;;;;;;;;;;;;;;;12.70;84.53;100200.59;7305522;19;20056;-68
2023/12/28 08:45:27;;;;;;;;;;;;;;;12.74;84.42;100193.16;7300575;19;19919;-68
2023/12/28 08:47:58;;;;;;;;;;;;;;;12.72;84.00;100193.31;7300215;19;19918;-68
2023/12/28 08:50:26;;;;;;;;;;;;;;;12.72;83.99;100184.59;7297435;19;20515;-68
2023/12/28 08:52:53;;;;;;;;;;;;;;;12.77;83.89;100196.25;7309609;19;19923;-69
2023/12/28 08:55:21;;;;;;;;;;;;;;;12.78;84.10;100192.59;7299852;19;20342;-68
2023/12/28 08:57:53;;;;;;;;;;;;;;;12.84;83.49;100197.16;7300627;19;19923;-68
2023/12/28 09:00:21;;;;;;;;;;;;;;;12.85;83.81;100182.09;7292535;19;19923;-69
2023/12/28 09:02:48;;;;;;;;;;;;;;;12.85;83.68;100182.09;7287427;19;20299;-68
2023/12/28 09:05:15;;;;;;;;;;;;;;;12.88;84.62;100186.22;7286301;19;19941;-70
2023/12/28 09:07:46;;;;;;;;;;;;;;;12.87;84.46;100193.31;7287496;19;19919;-68
2023/12/28 09:10:15;;;;;;;;;;;;;;;12.91;87.04;100204.31;7290528;19;19922;-67
2023/12/28 09:12:45;;;;;;;;;;;;;;;12.89;87.83;100201.06;7294075;19;22535;-68
2023/12/28 09:15:12;;;;;;;;;;;;;;;12.91;89.38;100201.69;7296122;19;21825;-67
2023/12/28 09:17:41;;;;;;;;;;;;;;;12.91;90.22;100228.09;7291460;19;19990;-68
2023/12/28 09:20:15;;;;;;;;;;;;;;;12.88;91.84;100239.84;7293421;19;19919;-68
2023/12/28 09:22:42;;;;;;;;;;;;;;;12.81;93.74;100238.94;7297128;19;20267;-69
2023/12/28 09:25:09;;;;;;;;;;;;;;;12.79;94.73;100243.59;7293204;19;20649;-70
2023/12/28 09:27:38;;;;;;;;;;;;;;;12.72;95.72;100217.09;7291350;19;20166;-70
2023/12/28 09:30:07;;;;;;;;;;;;;;;12.63;96.16;100225.28;7301039;19;19926;-68
2023/12/28 09:32:34;;;;;;;;;;;;;;;12.57;97.00;100231.28;7299722;19;21734;-67
2023/12/28 09:35:03;;;;;;;;;;;;;;;12.53;97.66;100230.00;7301498;19;19998;-68
2023/12/28 09:37:32;;;;;;;;;;;;;;;12.49;97.40;100224.28;7282598;19;19927;-69
2023/12/28 09:40:00;;;;;;;;;;;;;;;12.51;98.18;100222.25;7295373;19;19941;-67
2023/12/28 09:42:35;;;;;;;;;;;;;;;12.52;98.27;100217.78;7305140;19;19935;-69
2023/12/28 09:45:03;;;;;;;;;;;;;;;12.54;98.01;100219.28;7291210;19;19982;-68
2023/12/28 09:47:39;;;;;;;;;;;;;;;12.57;98.62;100218.06;7292248;19;19958;-68
2023/12/28 09:50:09;;;;;;;;;;;;;;;12.57;97.86;100218.06;7310684;19;20987;-68
2023/12/28 09:52:37;;;;;;;;;;;;;;;12.60;97.36;100233.53;7295501;19;19922;-69
2023/12/28 09:55:05;;;;;;;;;;;;;;;12.66;97.46;100225.72;7299697;19;19946;-67
2023/12/28 09:57:36;;;;;;;;;;;;;;;12.74;97.27;100220.38;7282762;19;20651;-67
2023/12/28 10:00:06;;;;;;;;;;;;;;;12.79;96.47;100222.47;7288914;19;20421;-68
2023/12/28 10:02:37;;;;;;;;;;;;;;;12.84;95.16;100228.03;7291322;19;22316;-69
2023/12/28 10:05:06;;;;;;;;;;;;;;;12.80;93.61;100232.81;7295832;19;19976;-68
2023/12/28 10:07:41;;;;;;;;;;;;;;;12.80;93.11;100234.63;7291271;19;19919;-68
2023/12/28 10:10:17;;;;;;;;;;;;;;;12.85;92.90;100237.56;7306003;19;19946;-68
2023/12/28 10:12:45;;;;;;;;;;;;;;;12.86;92.57;100234.75;7292665;19;19986;-71
2023/12/28 10:15:14;;;;;;;;;;;;;;;12.86;91.60;100231.28;7290039;19;19911;-67
2023/12/28 10:17:49;;;;;;;;;;;;;;;12.89;90.86;100227.47;7298293;19;20316;-70
2023/12/28 10:20:18;;;;;;;;;;;;;;;12.96;89.93;100223.91;7292053;19;20810;-67
2023/12/28 10:22:45;;;;;;;;;;;;;;;12.95;88.67;100232.84;7306392;19;19915;-68
2023/12/28 10:25:16;;;;;;;;;;;;;;;12.99;88.30;100233.28;7295804;19;19922;-70
2023/12/28 10:27:44;;;;;;;;;;;;;;;13.02;88.64;100231.09;7291973;19;19936;-68
2023/12/28 10:30:20;;;;;;;;;;;;;;;13.03;87.79;100227.47;7300544;19;20384;-67
2023/12/28 10:32:52;;;;;;;;;;;;;;;13.09;87.11;100236.47;7302249;19;19919;-70
2023/12/28 10:35:20;;;;;;;;;;;;;;;13.15;88.69;100226.03;7299750;19;19950;-67
2023/12/28 10:37:52;;;;;;;;;;;;;;;13.20;86.69;100225.47;7299011;19;19926;-68
2023/12/28 10:40:20;;;;;;;;;;;;;;;13.23;86.87;100209.25;7295260;19;20218;-68
2023/12/28 10:42:59;;;;;;;;;;;;;;;13.28;87.28;100210.31;7292554;19;19936;-67
2023/12/28 10:45:35;;;;;;;;;;;;;;;13.38;87.59;100233.81;7290296;19;20748;-68
2023/12/28 10:48:09;;;;;;;;;;;;;;;13.45;87.08;100224.16;7286378;19;19915;-68
2023/12/28 10:50:38;;;;;;;;;;;;;;;13.49;86.75;100209.53;7281009;19;19922;-68
2023/12/28 10:53:30;;;;;;;;;;;;;;;13.54;84.43;100204.50;7301285;19;20716;-68
2023/12/28 10:56:13;;;;;;;;;;;;;;;13.60;84.66;100213.53;7290083;19;19918;-68
2023/12/28 10:58:46;;;;;;;;;;;;;;;13.64;84.82;100196.28;7289347;19;20269;-68
2023/12/28 11:01:17;;;;;;;;;;;;;;;13.68;84.04;100194.88;7283082;19;19923;-69
2023/12/28 11:03:48;;;;;;;;;;;;;;;13.74;83.78;100180.91;7289426;19;20950;-67
2023/12/28 11:06:17;;;;;;;;;;;;;;;13.80;83.20;100189.91;7295929;19;19915;-69
2023/12/28 11:08:48;;;;;;;;;;;;;;;13.79;82.78;100196.22;7282826;19;20453;-67
2023/12/28 11:11:15;;;;;;;;;;;;;;;13.88;82.57;100195.88;7285626;19;21223;-67
2023/12/28 11:13:44;;;;;;;;;;;;;;;13.90;82.69;100193.88;7294690;19;19914;-68
2023/12/28 11:16:12;;;;;;;;;;;;;;;13.91;83.88;100192.06;7287712;19;20841;-68
2023/12/28 11:18:42;;;;;;;;;;;;;;;13.88;83.72;100201.19;7291158;19;21217;-68
2023/12/28 11:21:13;;;;;;;;;;;;;;;13.86;84.02;100187.34;7287141;19;19927;-69
2023/12/28 11:23:40;;;;;;;;;;;;;;;13.86;82.81;100189.16;7295997;19;19923;-68
2023/12/28 11:26:17;;;;;;;;;;;;;;;13.76;84.63;100180.75;7294581;19;19923;-69
2023/12/28 11:28:44;;;;;;;;;;;;;;;13.70;86.21;100198.19;7295255;19;20043;-67
2023/12/28 11:31:13;;;;;;;;;;;;;;;13.63;88.00;100168.19;7288642;19;19923;-68
2023/12/28 11:33:47;;;;;;;;;;;;;;;13.57;89.31;100164.47;7282599;19;20561;-69
2023/12/28 11:36:40;;;;;;;;;;;;;;;13.47;90.27;100158.69;7298123;19;19915;-68
2023/12/28 11:39:10;;;;;;;;;;;;;;;13.40;92.27;100192.19;7294659;19;19925;-69
2023/12/28 11:41:42;;;;;;;;;;;;;;;13.34;93.56;100163.03;7292223;19;20711;-68
2023/12/28 11:44:14;;;;;;;;;;;;;;;13.27;95.04;100178.78;7289993;19;19922;-69
2023/12/28 11:46:46;;;;;;;;;;;;;;;13.24;97.00;100179.19;7293860;19;20263;-68
2023/12/28 11:49:14;;;;;;;;;;;;;;;13.22;97.63;100170.59;7294026;19;19926;-68
2023/12/28 11:51:53;;;;;;;;;;;;;;;13.15;97.13;100167.91;7300399;19;19918;-69
2023/12/28 11:54:21;;;;;;;;;;;;;;;13.10;97.80;100158.88;7290607;19;19986;-67
2023/12/28 11:56:50;;;;;;;;;;;;;;;13.02;98.62;100158.97;7294446;19;19918;-69
2023/12/28 11:59:18;;;;;;;;;;;;;;;12.96;98.55;100157.88;7287677;19;20361;-68
2023/12/28 12:01:52;;;;;;;;;;;;;;;12.99;98.39;100154.88;7284632;19;20239;-68
2023/12/28 12:04:21;;;;;;;;;;;;;;;12.97;97.70;100156.88;7283200;19;20259;-67
2023/12/28 12:06:52;;;;;;;;;;;;;;;12.95;97.87;100156.25;7294643;19;19983;-67
2023/12/28 12:09:22;;;;;;;;;;;;;;;12.95;97.66;100156.25;7298049;19;19954;-68
2023/12/28 12:11:52;;;;;;;;;;;;;;;12.92;97.62;100150.50;7293039;19;19938;-68
2023/12/28 12:14:20;;;;;;;;;;;;;;;12.90;98.12;100157.81;7297000;19;20748;-67
2023/12/28 12:16:56;;;;;;;;;;;;;;;12.85;97.53;100153.88;7292401;19;19923;-69
2023/12/28 12:19:26;;;;;;;;;;;;;;;12.86;98.43;100152.06;7290963;19;19927;-67
2023/12/28 12:21:55;;;;;;;;;;;;;;;12.89;99.24;100149.06;7283859;19;20102;-67
2023/12/28 12:24:24;;;;;;;;;;;;;;;12.92;100.00;100143.41;7284911;19;20486;-68
2023/12/28 12:26:57;;;;;;;;;;;;;;;12.95;100.00;100129.03;7283055;19;20499;-68
2023/12/28 12:29:26;;;;;;;;;;;;;;;13.01;100.00;100128.28;7292870;19;19990;-69
2023/12/28 12:31:55;;;;;;;;;;;;;;;12.99;100.00;100117.91;7287377;19;19943;-69
2023/12/28 12:34:24;;;;;;;;;;;;;;;12.99;100.00;100117.09;7294833;19;19927;-68
2023/12/28 12:36:58;;;;;;;;;;;;;;;12.95;100.00;100111.38;7303669;19;20300;-68
2023/12/28 12:39:27;;;;;;;;;;;;;;;12.91;99.52;100120.66;7301165;19;19918;-68
2023/12/28 12:41:58;;;;;;;;;;;;;;;12.88;100.00;100105.19;7312068;19;20256;-69
2023/12/28 12:44:27;;;;;;;;;;;;;;;12.83;100.00;100095.19;7310750;19;20339;-68